3OK7 weather

Double W Airport
Sand Springs, Oklahoma, United States

Public forecast

Using degrees Fahrenheit for public forecast. Weather courtesy of forecast.io.

METAR (pilot weather report)

Closest report is William R. Pogue Municipal Airport, 4.1 nm (7.6 km) SSW. Retrieved 2019/04/22 02:35 UTC (6 minutes ago):

KOWP 220235Z AUTO 15007KT 10SM CLR 24/11 A2987 RMK AO2 T02400106 PWINO

TAF (pilot weather forecast)

Forecast is more than 12 hours old.

Closest forecast is Tulsa International Airport, 12.2 nm (22.6 km) ESE. Retrieved 2019/04/21 00:22 UTC (1 day ago):

TAF KTUL 212320Z 2200/2224 17024G32KT P6SM SCT150 FM220100 18015KT P6SM SCT150 FM221500 19012G22KT P6SM BKN025